sensor_id;sensor_type;location;lat;lon;timestamp;P1;P2;P0
72307;PMS5003;60257;42.638;23.376;2023-06-22T00:01:10;31.00;29.00;20.25
72307;PMS5003;60257;42.638;23.376;2023-06-22T00:03:36;23.00;21.50;15.75
72307;PMS5003;60257;42.638;23.376;2023-06-22T00:06:02;27.00;26.50;18.00
72307;PMS5003;60257;42.638;23.376;2023-06-22T00:08:28;29.75;27.00;19.50
72307;PMS5003;60257;42.638;23.376;2023-06-22T00:10:53;33.75;33.25;21.50
72307;PMS5003;60257;42.638;23.376;2023-06-22T00:13:19;27.75;27.50;16.50
72307;PMS5003;60257;42.638;23.376;2023-06-22T00:15:45;22.50;22.50;16.00
72307;PMS5003;60257;42.638;23.376;2023-06-22T00:18:10;30.00;29.25;18.50
72307;PMS5003;60257;42.638;23.376;2023-06-22T00:20:38;27.25;27.25;17.75
72307;PMS5003;60257;42.638;23.376;2023-06-22T00:23:04;24.25;23.00;15.00
72307;PMS5003;60257;42.638;23.376;2023-06-22T00:25:37;30.50;30.50;19.00
72307;PMS5003;60257;42.638;23.376;2023-06-22T00:28:03;27.50;24.50;18.50
72307;PMS5003;60257;42.638;23.376;2023-06-22T00:30:30;34.50;32.00;19.00
72307;PMS5003;60257;42.638;23.376;2023-06-22T00:32:56;31.50;31.50;21.50
72307;PMS5003;60257;42.638;23.376;2023-06-22T00:35:22;38.33;34.33;22.00
72307;PMS5003;60257;42.638;23.376;2023-06-22T00:37:47;27.00;27.00;17.67
72307;PMS5003;60257;42.638;23.376;2023-06-22T00:40:13;29.25;28.50;20.00
72307;PMS5003;60257;42.638;23.376;2023-06-22T00:42:39;35.25;32.75;19.50
72307;PMS5003;60257;42.638;23.376;2023-06-22T00:45:06;31.50;31.50;21.50
72307;PMS5003;60257;42.638;23.376;2023-06-22T00:47:32;30.25;30.25;22.00
72307;PMS5003;60257;42.638;23.376;2023-06-22T00:50:00;28.50;28.50;18.50
72307;PMS5003;60257;42.638;23.376;2023-06-22T00:52:26;18.75;16.75;9.50
72307;PMS5003;60257;42.638;23.376;2023-06-22T00:54:55;22.50;22.25;14.00
72307;PMS5003;60257;42.638;23.376;2023-06-22T00:57:22;27.00;26.25;15.50
72307;PMS5003;60257;42.638;23.376;2023-06-22T00:59:53;27.50;26.00;18.00
72307;PMS5003;60257;42.638;23.376;2023-06-22T01:02:19;24.25;24.25;17.00
72307;PMS5003;60257;42.638;23.376;2023-06-22T01:04:44;31.00;29.00;18.50
72307;PMS5003;60257;42.638;23.376;2023-06-22T01:07:44;25.75;25.75;17.00
72307;PMS5003;60257;42.638;23.376;2023-06-22T01:10:14;31.25;30.25;20.75
72307;PMS5003;60257;42.638;23.376;2023-06-22T01:12:48;28.25;28.00;18.75
72307;PMS5003;60257;42.638;23.376;2023-06-22T01:18:21;27.25;26.00;17.00
72307;PMS5003;60257;42.638;23.376;2023-06-22T01:20:51;30.25;29.25;18.50
72307;PMS5003;60257;42.638;23.376;2023-06-22T01:29:07;25.50;24.50;16.50
72307;PMS5003;60257;42.638;23.376;2023-06-22T01:31:37;29.50;28.75;18.25
72307;PMS5003;60257;42.638;23.376;2023-06-22T01:34:05;32.00;30.00;20.00
72307;PMS5003;60257;42.638;23.376;2023-06-22T01:36:32;27.33;27.33;19.00
72307;PMS5003;60257;42.638;23.376;2023-06-22T01:38:58;25.67;25.67;18.00
72307;PMS5003;60257;42.638;23.376;2023-06-22T01:41:26;30.00;29.67;19.00
72307;PMS5003;60257;42.638;23.376;2023-06-22T01:43:53;25.50;25.50;17.00
72307;PMS5003;60257;42.638;23.376;2023-06-22T01:46:20;30.50;30.00;19.50
72307;PMS5003;60257;42.638;23.376;2023-06-22T01:48:46;27.25;27.25;19.75
72307;PMS5003;60257;42.638;23.376;2023-06-22T01:51:13;28.25;27.75;20.00
72307;PMS5003;60257;42.638;23.376;2023-06-22T01:53:39;32.00;31.00;21.33
72307;PMS5003;60257;42.638;23.376;2023-06-22T01:56:05;32.33;29.67;19.33
72307;PMS5003;60257;42.638;23.376;2023-06-22T01:58:31;28.67;28.67;19.33
72307;PMS5003;60257;42.638;23.376;2023-06-22T02:03:48;33.00;30.50;20.00
72307;PMS5003;60257;42.638;23.376;2023-06-22T02:06:30;31.00;29.50;20.00
72307;PMS5003;60257;42.638;23.376;2023-06-22T02:09:02;29.50;29.50;18.25
72307;PMS5003;60257;42.638;23.376;2023-06-22T02:11:35;30.50;29.25;19.75
72307;PMS5003;60257;42.638;23.376;2023-06-22T02:14:02;25.00;25.00;17.00
72307;PMS5003;60257;42.638;23.376;2023-06-22T02:16:28;35.67;34.33;21.33
72307;PMS5003;60257;42.638;23.376;2023-06-22T02:18:57;30.25;28.25;19.00
72307;PMS5003;60257;42.638;23.376;2023-06-22T02:21:28;30.25;28.50;19.75
72307;PMS5003;60257;42.638;23.376;2023-06-22T02:23:54;30.50;27.75;19.25
72307;PMS5003;60257;42.638;23.376;2023-06-22T02:26:19;24.75;24.50;17.75
72307;PMS5003;60257;42.638;23.376;2023-06-22T02:28:45;28.75;26.75;17.00
72307;PMS5003;60257;42.638;23.376;2023-06-22T02:31:11;27.25;27.25;18.00
72307;PMS5003;60257;42.638;23.376;2023-06-22T02:33:36;30.25;29.00;19.75
72307;PMS5003;60257;42.638;23.376;2023-06-22T02:36:02;30.50;29.00;18.50
72307;PMS5003;60257;42.638;23.376;2023-06-22T02:38:34;34.25;29.25;17.75
72307;PMS5003;60257;42.638;23.376;2023-06-22T02:41:01;30.00;29.33;20.00
72307;PMS5003;60257;42.638;23.376;2023-06-22T02:43:27;28.33;28.33;19.00
72307;PMS5003;60257;42.638;23.376;2023-06-22T02:45:52;29.50;28.75;19.25
72307;PMS5003;60257;42.638;23.376;2023-06-22T02:48:18;23.67;23.67;18.00
72307;PMS5003;60257;42.638;23.376;2023-06-22T02:50:44;26.25;24.50;15.75
72307;PMS5003;60257;42.638;23.376;2023-06-22T02:53:09;29.00;28.00;17.25
72307;PMS5003;60257;42.638;23.376;2023-06-22T02:55:35;27.75;27.75;16.50
72307;PMS5003;60257;42.638;23.376;2023-06-22T02:58:00;26.75;25.75;16.00
72307;PMS5003;60257;42.638;23.376;2023-06-22T03:00:30;25.25;25.25;17.00
72307;PMS5003;60257;42.638;23.376;2023-06-22T03:02:56;26.75;26.75;16.00
72307;PMS5003;60257;42.638;23.376;2023-06-22T03:05:22;26.75;26.75;17.00
72307;PMS5003;60257;42.638;23.376;2023-06-22T03:07:48;30.50;28.75;19.25
72307;PMS5003;60257;42.638;23.376;2023-06-22T03:10:14;31.33;29.00;16.67
72307;PMS5003;60257;42.638;23.376;2023-06-22T03:12:41;28.75;28.75;19.50
72307;PMS5003;60257;42.638;23.376;2023-06-22T03:15:08;30.00;29.33;20.00
72307;PMS5003;60257;42.638;23.376;2023-06-22T03:17:36;30.67;29.67;18.00
72307;PMS5003;60257;42.638;23.376;2023-06-22T03:20:03;31.33;30.00;20.00
72307;PMS5003;60257;42.638;23.376;2023-06-22T03:22:37;15.00;15.00;7.67
72307;PMS5003;60257;42.638;23.376;2023-06-22T03:25:04;29.25;28.25;19.00
72307;PMS5003;60257;42.638;23.376;2023-06-22T03:27:38;30.67;27.67;19.33
72307;PMS5003;60257;42.638;23.376;2023-06-22T03:30:07;33.67;29.00;18.33
72307;PMS5003;60257;42.638;23.376;2023-06-22T03:32:34;28.00;27.25;20.00
72307;PMS5003;60257;42.638;23.376;2023-06-22T03:34:59;28.50;28.25;17.00
72307;PMS5003;60257;42.638;23.376;2023-06-22T03:37:25;30.67;29.67;20.00
72307;PMS5003;60257;42.638;23.376;2023-06-22T03:39:52;27.00;27.00;17.50
72307;PMS5003;60257;42.638;23.376;2023-06-22T03:42:17;30.75;29.00;20.00
72307;PMS5003;60257;42.638;23.376;2023-06-22T03:44:43;29.75;29.25;19.25
72307;PMS5003;60257;42.638;23.376;2023-06-22T03:47:08;27.00;25.00;16.25
72307;PMS5003;60257;42.638;23.376;2023-06-22T03:49:34;25.25;25.25;16.25
72307;PMS5003;60257;42.638;23.376;2023-06-22T03:52:01;31.33;30.33;20.00
72307;PMS5003;60257;42.638;23.376;2023-06-22T03:54:28;33.00;31.00;20.00
72307;PMS5003;60257;42.638;23.376;2023-06-22T03:56:54;27.25;27.00;19.25
72307;PMS5003;60257;42.638;23.376;2023-06-22T03:59:21;34.00;30.67;20.00
72307;PMS5003;60257;42.638;23.376;2023-06-22T04:01:46;46.00;37.33;24.00
72307;PMS5003;60257;42.638;23.376;2023-06-22T04:04:12;29.00;29.00;19.33
72307;PMS5003;60257;42.638;23.376;2023-06-22T04:06:37;35.67;32.00;20.67
72307;PMS5003;60257;42.638;23.376;2023-06-22T04:09:03;29.25;28.25;19.50
72307;PMS5003;60257;42.638;23.376;2023-06-22T04:11:28;36.33;35.00;23.00
72307;PMS5003;60257;42.638;23.376;2023-06-22T04:13:54;32.00;31.00;20.00
72307;PMS5003;60257;42.638;23.376;2023-06-22T04:16:20;37.33;35.67;23.33
72307;PMS5003;60257;42.638;23.376;2023-06-22T04:18:46;56.67;47.33;30.67
72307;PMS5003;60257;42.638;23.376;2023-06-22T04:21:11;64.67;53.67;35.33
72307;PMS5003;60257;42.638;23.376;2023-06-22T04:23:38;37.67;34.67;17.67
72307;PMS5003;60257;42.638;23.376;2023-06-22T04:26:04;33.00;31.00;21.00
72307;PMS5003;60257;42.638;23.376;2023-06-22T04:28:29;35.00;33.33;22.67
72307;PMS5003;60257;42.638;23.376;2023-06-22T04:30:59;33.25;31.75;21.00
72307;PMS5003;60257;42.638;23.376;2023-06-22T04:33:27;39.67;34.33;23.33
72307;PMS5003;60257;42.638;23.376;2023-06-22T04:35:56;33.33;31.00;20.67
72307;PMS5003;60257;42.638;23.376;2023-06-22T04:38:23;40.00;36.67;25.00
72307;PMS5003;60257;42.638;23.376;2023-06-22T04:40:49;34.00;32.00;19.33
72307;PMS5003;60257;42.638;23.376;2023-06-22T04:43:15;28.33;28.33;20.67
72307;PMS5003;60257;42.638;23.376;2023-06-22T04:45:41;35.33;34.00;23.00
72307;PMS5003;60257;42.638;23.376;2023-06-22T04:48:06;38.67;36.00;22.33
72307;PMS5003;60257;42.638;23.376;2023-06-22T04:50:35;41.33;37.33;23.67
72307;PMS5003;60257;42.638;23.376;2023-06-22T04:53:02;36.25;34.25;22.25
72307;PMS5003;60257;42.638;23.376;2023-06-22T04:55:30;33.67;33.00;22.33
72307;PMS5003;60257;42.638;23.376;2023-06-22T04:57:56;36.00;33.67;22.00
72307;PMS5003;60257;42.638;23.376;2023-06-22T05:00:22;36.25;35.25;24.75
72307;PMS5003;60257;42.638;23.376;2023-06-22T05:02:48;35.67;33.67;22.67
72307;PMS5003;60257;42.638;23.376;2023-06-22T05:05:15;36.67;34.67;22.33
72307;PMS5003;60257;42.638;23.376;2023-06-22T05:07:44;36.33;33.00;21.00
72307;PMS5003;60257;42.638;23.376;2023-06-22T05:10:13;36.00;34.67;22.00
72307;PMS5003;60257;42.638;23.376;2023-06-22T05:12:40;30.50;29.50;22.75
72307;PMS5003;60257;42.638;23.376;2023-06-22T05:15:07;44.67;38.67;24.33
72307;PMS5003;60257;42.638;23.376;2023-06-22T05:17:33;45.67;38.67;24.67
72307;PMS5003;60257;42.638;23.376;2023-06-22T05:20:00;48.33;40.33;25.00
72307;PMS5003;60257;42.638;23.376;2023-06-22T05:22:26;37.00;34.67;23.33
72307;PMS5003;60257;42.638;23.376;2023-06-22T05:24:51;44.67;38.67;25.00
72307;PMS5003;60257;42.638;23.376;2023-06-22T05:27:16;39.33;36.00;23.00
72307;PMS5003;60257;42.638;23.376;2023-06-22T05:29:42;36.50;34.25;23.00
72307;PMS5003;60257;42.638;23.376;2023-06-22T05:32:08;38.00;35.00;23.00
72307;PMS5003;60257;42.638;23.376;2023-06-22T05:34:33;33.75;31.00;22.00
72307;PMS5003;60257;42.638;23.376;2023-06-22T05:36:59;32.25;31.00;20.50
72307;PMS5003;60257;42.638;23.376;2023-06-22T05:39:25;37.00;34.50;21.75
72307;PMS5003;60257;42.638;23.376;2023-06-22T05:41:51;40.25;36.00;23.00
72307;PMS5003;60257;42.638;23.376;2023-06-22T05:44:17;43.67;38.33;25.33
72307;PMS5003;60257;42.638;23.376;2023-06-22T05:46:44;31.75;30.75;21.25
72307;PMS5003;60257;42.638;23.376;2023-06-22T05:49:11;37.75;35.00;23.25
72307;PMS5003;60257;42.638;23.376;2023-06-22T05:51:38;37.50;33.75;22.00
72307;PMS5003;60257;42.638;23.376;2023-06-22T05:54:04;34.75;31.50;21.00
72307;PMS5003;60257;42.638;23.376;2023-06-22T05:56:30;37.50;34.00;22.00
72307;PMS5003;60257;42.638;23.376;2023-06-22T05:58:56;38.25;34.75;22.75
72307;PMS5003;60257;42.638;23.376;2023-06-22T06:01:21;36.50;32.00;22.00
72307;PMS5003;60257;42.638;23.376;2023-06-22T06:03:47;36.25;34.50;24.00
72307;PMS5003;60257;42.638;23.376;2023-06-22T06:06:14;42.33;37.67;25.00
72307;PMS5003;60257;42.638;23.376;2023-06-22T06:08:40;42.50;37.75;24.00
72307;PMS5003;60257;42.638;23.376;2023-06-22T06:11:06;43.33;38.00;24.00
72307;PMS5003;60257;42.638;23.376;2023-06-22T06:13:31;40.50;37.25;23.75
72307;PMS5003;60257;42.638;23.376;2023-06-22T06:15:57;38.00;35.25;23.50
72307;PMS5003;60257;42.638;23.376;2023-06-22T06:18:24;39.00;34.67;23.00
72307;PMS5003;60257;42.638;23.376;2023-06-22T06:20:49;41.67;37.00;24.33
72307;PMS5003;60257;42.638;23.376;2023-06-22T06:23:15;30.50;28.75;21.00
72307;PMS5003;60257;42.638;23.376;2023-06-22T06:25:40;35.50;33.25;23.00
72307;PMS5003;60257;42.638;23.376;2023-06-22T06:28:05;44.50;38.25;24.25
72307;PMS5003;60257;42.638;23.376;2023-06-22T06:30:31;38.75;35.75;23.25
72307;PMS5003;60257;42.638;23.376;2023-06-22T06:32:57;29.75;29.75;23.00
72307;PMS5003;60257;42.638;23.376;2023-06-22T06:35:22;56.00;47.33;31.00
72307;PMS5003;60257;42.638;23.376;2023-06-22T06:37:48;48.67;41.00;28.00
72307;PMS5003;60257;42.638;23.376;2023-06-22T06:40:15;33.75;31.75;20.00
72307;PMS5003;60257;42.638;23.376;2023-06-22T06:42:45;30.75;30.00;21.00
72307;PMS5003;60257;42.638;23.376;2023-06-22T06:45:16;35.00;32.75;21.75
72307;PMS5003;60257;42.638;23.376;2023-06-22T06:47:43;41.50;37.50;23.75
72307;PMS5003;60257;42.638;23.376;2023-06-22T06:50:09;37.50;34.75;23.25
72307;PMS5003;60257;42.638;23.376;2023-06-22T06:52:36;42.50;38.00;25.00
72307;PMS5003;60257;42.638;23.376;2023-06-22T06:55:02;40.25;36.00;23.75
72307;PMS5003;60257;42.638;23.376;2023-06-22T06:57:31;37.75;36.75;23.00
72307;PMS5003;60257;42.638;23.376;2023-06-22T06:59:58;34.25;33.25;19.25
72307;PMS5003;60257;42.638;23.376;2023-06-22T07:02:25;39.50;35.50;24.25
72307;PMS5003;60257;42.638;23.376;2023-06-22T07:04:52;45.50;39.25;25.75
72307;PMS5003;60257;42.638;23.376;2023-06-22T07:07:18;45.50;39.00;26.00
72307;PMS5003;60257;42.638;23.376;2023-06-22T07:09:43;35.25;34.00;22.00
72307;PMS5003;60257;42.638;23.376;2023-06-22T07:12:09;38.50;34.25;24.00
72307;PMS5003;60257;42.638;23.376;2023-06-22T07:14:34;47.50;39.50;25.25
72307;PMS5003;60257;42.638;23.376;2023-06-22T07:17:00;34.00;34.00;24.75
72307;PMS5003;60257;42.638;23.376;2023-06-22T07:19:26;39.50;36.25;24.00
72307;PMS5003;60257;42.638;23.376;2023-06-22T07:21:52;39.25;35.75;23.50
72307;PMS5003;60257;42.638;23.376;2023-06-22T07:24:19;31.50;29.00;20.00
72307;PMS5003;60257;42.638;23.376;2023-06-22T07:26:46;35.00;32.00;23.00
72307;PMS5003;60257;42.638;23.376;2023-06-22T07:29:13;29.75;27.25;22.00
72307;PMS5003;60257;42.638;23.376;2023-06-22T07:31:38;36.00;33.50;24.00
72307;PMS5003;60257;42.638;23.376;2023-06-22T07:34:06;39.75;36.25;24.75
72307;PMS5003;60257;42.638;23.376;2023-06-22T07:36:31;40.50;36.50;24.50
72307;PMS5003;60257;42.638;23.376;2023-06-22T07:38:56;41.25;37.00;25.50
72307;PMS5003;60257;42.638;23.376;2023-06-22T07:41:22;39.50;35.25;23.25
72307;PMS5003;60257;42.638;23.376;2023-06-22T07:43:47;41.00;36.75;25.00
72307;PMS5003;60257;42.638;23.376;2023-06-22T07:46:13;41.75;38.75;25.50
72307;PMS5003;60257;42.638;23.376;2023-06-22T07:48:39;43.25;37.00;24.00
72307;PMS5003;60257;42.638;23.376;2023-06-22T07:51:06;39.25;36.50;24.75
72307;PMS5003;60257;42.638;23.376;2023-06-22T07:53:32;34.75;33.75;21.50
72307;PMS5003;60257;42.638;23.376;2023-06-22T07:55:57;36.25;34.50;22.25
72307;PMS5003;60257;42.638;23.376;2023-06-22T07:58:23;33.50;32.00;22.25
72307;PMS5003;60257;42.638;23.376;2023-06-22T08:00:48;40.00;34.75;23.00
72307;PMS5003;60257;42.638;23.376;2023-06-22T08:03:14;31.00;30.25;19.50
72307;PMS5003;60257;42.638;23.376;2023-06-22T08:05:40;35.25;32.75;22.50
72307;PMS5003;60257;42.638;23.376;2023-06-22T08:08:06;36.00;33.00;22.50
72307;PMS5003;60257;42.638;23.376;2023-06-22T08:10:31;44.25;37.50;24.00
72307;PMS5003;60257;42.638;23.376;2023-06-22T08:12:57;38.25;34.50;22.00
72307;PMS5003;60257;42.638;23.376;2023-06-22T08:15:22;39.25;36.00;23.50
72307;PMS5003;60257;42.638;23.376;2023-06-22T08:17:48;37.25;34.25;23.25
72307;PMS5003;60257;42.638;23.376;2023-06-22T08:20:13;38.25;34.50;24.00
72307;PMS5003;60257;42.638;23.376;2023-06-22T08:22:40;37.75;34.25;24.00
72307;PMS5003;60257;42.638;23.376;2023-06-22T08:25:06;38.00;34.50;23.00
72307;PMS5003;60257;42.638;23.376;2023-06-22T08:27:32;40.25;35.50;25.50
72307;PMS5003;60257;42.638;23.376;2023-06-22T08:29:58;42.75;37.75;24.75
72307;PMS5003;60257;42.638;23.376;2023-06-22T08:32:25;32.25;31.25;23.75
72307;PMS5003;60257;42.638;23.376;2023-06-22T08:34:55;41.00;38.25;24.50
72307;PMS5003;60257;42.638;23.376;2023-06-22T08:37:21;37.00;35.00;24.00
72307;PMS5003;60257;42.638;23.376;2023-06-22T08:39:56;41.50;37.25;24.75
72307;PMS5003;60257;42.638;23.376;2023-06-22T08:42:22;42.25;37.50;25.00
72307;PMS5003;60257;42.638;23.376;2023-06-22T08:44:49;42.00;36.75;25.00
72307;PMS5003;60257;42.638;23.376;2023-06-22T08:47:14;36.75;35.00;22.00
72307;PMS5003;60257;42.638;23.376;2023-06-22T08:49:40;49.00;42.75;28.25
72307;PMS5003;60257;42.638;23.376;2023-06-22T08:52:05;43.50;38.75;25.50
72307;PMS5003;60257;42.638;23.376;2023-06-22T08:54:31;48.75;41.00;26.00
72307;PMS5003;60257;42.638;23.376;2023-06-22T08:56:59;37.25;32.25;21.00
72307;PMS5003;60257;42.638;23.376;2023-06-22T08:59:25;40.75;36.50;23.50
72307;PMS5003;60257;42.638;23.376;2023-06-22T09:01:50;42.75;39.25;24.00
72307;PMS5003;60257;42.638;23.376;2023-06-22T09:04:16;36.75;33.50;23.00
72307;PMS5003;60257;42.638;23.376;2023-06-22T09:06:42;38.00;36.75;25.00
72307;PMS5003;60257;42.638;23.376;2023-06-22T09:09:10;40.75;36.75;24.75
72307;PMS5003;60257;42.638;23.376;2023-06-22T09:11:37;34.50;33.00;23.00
72307;PMS5003;60257;42.638;23.376;2023-06-22T09:14:03;38.50;36.00;24.00
72307;PMS5003;60257;42.638;23.376;2023-06-22T09:16:29;33.75;30.00;21.00
72307;PMS5003;60257;42.638;23.376;2023-06-22T09:18:54;40.00;36.25;23.50
72307;PMS5003;60257;42.638;23.376;2023-06-22T09:21:20;35.00;32.25;21.00
72307;PMS5003;60257;42.638;23.376;2023-06-22T09:23:45;34.00;32.25;23.25
72307;PMS5003;60257;42.638;23.376;2023-06-22T09:26:15;36.25;32.00;21.50
72307;PMS5003;60257;42.638;23.376;2023-06-22T09:28:41;41.50;37.25;24.75
72307;PMS5003;60257;42.638;23.376;2023-06-22T09:31:06;36.25;33.50;23.50
72307;PMS5003;60257;42.638;23.376;2023-06-22T09:33:32;39.00;36.50;23.25
72307;PMS5003;60257;42.638;23.376;2023-06-22T09:35:57;28.25;28.25;17.75
72307;PMS5003;60257;42.638;23.376;2023-06-22T09:38:23;33.00;32.50;23.00
72307;PMS5003;60257;42.638;23.376;2023-06-22T09:40:48;28.75;28.75;20.00
72307;PMS5003;60257;42.638;23.376;2023-06-22T09:43:14;32.75;30.50;18.25
72307;PMS5003;60257;42.638;23.376;2023-06-22T09:45:39;32.25;32.00;20.50
72307;PMS5003;60257;42.638;23.376;2023-06-22T09:48:05;34.00;34.00;22.50
72307;PMS5003;60257;42.638;23.376;2023-06-22T09:50:30;34.25;34.25;23.75
72307;PMS5003;60257;42.638;23.376;2023-06-22T09:52:56;29.50;29.50;20.75
72307;PMS5003;60257;42.638;23.376;2023-06-22T09:55:22;33.00;31.50;18.50
72307;PMS5003;60257;42.638;23.376;2023-06-22T09:57:47;30.50;27.75;19.75
72307;PMS5003;60257;42.638;23.376;2023-06-22T10:00:13;27.75;26.50;19.25
72307;PMS5003;60257;42.638;23.376;2023-06-22T10:02:44;32.50;29.75;20.00
72307;PMS5003;60257;42.638;23.376;2023-06-22T10:05:09;32.00;30.25;20.25
72307;PMS5003;60257;42.638;23.376;2023-06-22T10:07:35;32.25;30.50;20.25
72307;PMS5003;60257;42.638;23.376;2023-06-22T10:10:05;33.25;31.00;21.50
72307;PMS5003;60257;42.638;23.376;2023-06-22T10:12:31;31.00;30.25;21.50
72307;PMS5003;60257;42.638;23.376;2023-06-22T10:14:57;27.00;27.00;17.50
72307;PMS5003;60257;42.638;23.376;2023-06-22T10:17:22;38.50;35.50;22.00
72307;PMS5003;60257;42.638;23.376;2023-06-22T10:19:47;37.50;35.75;23.75
72307;PMS5003;60257;42.638;23.376;2023-06-22T10:22:13;31.00;31.00;21.00
72307;PMS5003;60257;42.638;23.376;2023-06-22T10:24:39;34.25;33.00;21.75
72307;PMS5003;60257;42.638;23.376;2023-06-22T10:27:09;28.25;28.25;19.25
72307;PMS5003;60257;42.638;23.376;2023-06-22T10:29:38;25.75;25.75;18.25
72307;PMS5003;60257;42.638;23.376;2023-06-22T10:32:04;27.00;26.00;20.00
72307;PMS5003;60257;42.638;23.376;2023-06-22T10:34:30;28.75;28.75;18.25
72307;PMS5003;60257;42.638;23.376;2023-06-22T10:36:55;30.00;30.00;20.25
72307;PMS5003;60257;42.638;23.376;2023-06-22T10:39:21;28.75;28.75;19.50
72307;PMS5003;60257;42.638;23.376;2023-06-22T10:41:46;31.50;31.00;20.75
72307;PMS5003;60257;42.638;23.376;2023-06-22T10:44:12;29.00;29.00;19.00
72307;PMS5003;60257;42.638;23.376;2023-06-22T10:46:38;31.75;30.00;19.00
72307;PMS5003;60257;42.638;23.376;2023-06-22T10:49:04;30.25;29.50;19.00
72307;PMS5003;60257;42.638;23.376;2023-06-22T10:51:29;32.25;31.00;20.25
72307;PMS5003;60257;42.638;23.376;2023-06-22T10:53:56;29.75;28.50;18.75
72307;PMS5003;60257;42.638;23.376;2023-06-22T10:56:22;29.25;29.25;20.25
72307;PMS5003;60257;42.638;23.376;2023-06-22T10:58:47;28.75;27.00;17.25
72307;PMS5003;60257;42.638;23.376;2023-06-22T11:01:13;32.75;31.75;20.25
72307;PMS5003;60257;42.638;23.376;2023-06-22T11:03:39;35.25;33.00;21.75
72307;PMS5003;60257;42.638;23.376;2023-06-22T11:06:05;39.00;37.75;25.00
72307;PMS5003;60257;42.638;23.376;2023-06-22T11:08:30;28.75;28.75;19.50
72307;PMS5003;60257;42.638;23.376;2023-06-22T11:10:55;35.75;31.75;21.50
72307;PMS5003;60257;42.638;23.376;2023-06-22T11:13:21;38.25;34.50;23.00
72307;PMS5003;60257;42.638;23.376;2023-06-22T11:15:46;33.50;30.75;20.25
72307;PMS5003;60257;42.638;23.376;2023-06-22T11:18:12;22.75;21.75;15.00
72307;PMS5003;60257;42.638;23.376;2023-06-22T11:20:37;26.50;26.50;19.00
72307;PMS5003;60257;42.638;23.376;2023-06-22T11:23:06;30.25;29.50;20.25
72307;PMS5003;60257;42.638;23.376;2023-06-22T11:25:32;25.50;24.50;16.50
72307;PMS5003;60257;42.638;23.376;2023-06-22T11:28:00;29.50;28.75;19.50
72307;PMS5003;60257;42.638;23.376;2023-06-22T11:30:27;24.25;24.25;14.25
72307;PMS5003;60257;42.638;23.376;2023-06-22T11:32:52;21.50;20.50;13.00
72307;PMS5003;60257;42.638;23.376;2023-06-22T11:35:18;27.75;27.75;19.00
72307;PMS5003;60257;42.638;23.376;2023-06-22T11:37:43;25.75;24.00;15.75
72307;PMS5003;60257;42.638;23.376;2023-06-22T11:40:09;26.00;24.25;17.75
72307;PMS5003;60257;42.638;23.376;2023-06-22T11:42:35;25.50;25.50;17.00
72307;PMS5003;60257;42.638;23.376;2023-06-22T11:45:01;23.50;22.75;15.25
72307;PMS5003;60257;42.638;23.376;2023-06-22T11:47:27;21.50;21.50;16.00
72307;PMS5003;60257;42.638;23.376;2023-06-22T11:49:53;23.75;23.75;18.00
72307;PMS5003;60257;42.638;23.376;2023-06-22T11:52:18;26.50;26.25;17.00
72307;PMS5003;60257;42.638;23.376;2023-06-22T11:54:44;27.25;25.75;17.00
72307;PMS5003;60257;42.638;23.376;2023-06-22T11:57:11;22.75;22.25;16.25
72307;PMS5003;60257;42.638;23.376;2023-06-22T11:59:36;24.25;24.25;17.25
72307;PMS5003;60257;42.638;23.376;2023-06-22T12:02:02;25.50;25.50;17.50
72307;PMS5003;60257;42.638;23.376;2023-06-22T12:04:28;22.75;22.75;15.75
72307;PMS5003;60257;42.638;23.376;2023-06-22T12:06:54;20.25;20.25;14.00
72307;PMS5003;60257;42.638;23.376;2023-06-22T12:09:19;23.75;23.75;14.75
72307;PMS5003;60257;42.638;23.376;2023-06-22T12:11:45;22.50;22.50;15.75
72307;PMS5003;60257;42.638;23.376;2023-06-22T12:16:15;24.50;24.50;17.00
72307;PMS5003;60257;42.638;23.376;2023-06-22T12:18:40;25.25;25.25;15.75
72307;PMS5003;60257;42.638;23.376;2023-06-22T12:21:06;25.50;25.00;17.25
72307;PMS5003;60257;42.638;23.376;2023-06-22T12:23:32;29.25;28.75;20.50
72307;PMS5003;60257;42.638;23.376;2023-06-22T12:25:57;30.50;28.50;19.50
72307;PMS5003;60257;42.638;23.376;2023-06-22T12:28:24;26.75;24.50;18.00
72307;PMS5003;60257;42.638;23.376;2023-06-22T12:30:50;32.00;29.75;19.75
72307;PMS5003;60257;42.638;23.376;2023-06-22T12:33:15;34.00;31.25;20.00
72307;PMS5003;60257;42.638;23.376;2023-06-22T12:35:41;35.50;31.00;22.25
72307;PMS5003;60257;42.638;23.376;2023-06-22T12:38:06;30.50;30.50;20.25
72307;PMS5003;60257;42.638;23.376;2023-06-22T12:40:33;31.50;29.00;21.25
72307;PMS5003;60257;42.638;23.376;2023-06-22T12:42:58;29.75;29.50;21.00
72307;PMS5003;60257;42.638;23.376;2023-06-22T12:45:24;25.00;24.25;16.75
72307;PMS5003;60257;42.638;23.376;2023-06-22T12:47:53;29.75;28.75;19.00
72307;PMS5003;60257;42.638;23.376;2023-06-22T12:50:19;30.25;27.50;18.00
72307;PMS5003;60257;42.638;23.376;2023-06-22T12:52:45;29.25;28.50;18.50
72307;PMS5003;60257;42.638;23.376;2023-06-22T12:55:10;25.25;25.25;16.50
72307;PMS5003;60257;42.638;23.376;2023-06-22T12:57:36;28.75;27.75;18.00
72307;PMS5003;60257;42.638;23.376;2023-06-22T13:00:01;25.75;25.00;17.50
72307;PMS5003;60257;42.638;23.376;2023-06-22T13:02:29;30.50;30.50;22.00
72307;PMS5003;60257;42.638;23.376;2023-06-22T13:04:55;25.25;23.00;18.25
72307;PMS5003;60257;42.638;23.376;2023-06-22T13:07:20;27.25;27.25;19.25
72307;PMS5003;60257;42.638;23.376;2023-06-22T13:09:45;27.25;27.25;17.25
72307;PMS5003;60257;42.638;23.376;2023-06-22T13:12:11;29.75;28.25;20.75
72307;PMS5003;60257;42.638;23.376;2023-06-22T13:14:37;48.75;41.25;26.75
72307;PMS5003;60257;42.638;23.376;2023-06-22T13:17:02;32.50;31.25;23.75
72307;PMS5003;60257;42.638;23.376;2023-06-22T13:19:28;33.25;31.25;21.50
72307;PMS5003;60257;42.638;23.376;2023-06-22T13:21:57;35.00;33.00;19.75
72307;PMS5003;60257;42.638;23.376;2023-06-22T13:24:22;38.50;34.50;21.25
72307;PMS5003;60257;42.638;23.376;2023-06-22T13:26:48;30.25;30.00;21.00
72307;PMS5003;60257;42.638;23.376;2023-06-22T13:29:13;35.00;33.00;21.75
72307;PMS5003;60257;42.638;23.376;2023-06-22T13:31:39;29.50;27.75;18.25
72307;PMS5003;60257;42.638;23.376;2023-06-22T13:34:04;27.75;25.00;14.50
72307;PMS5003;60257;42.638;23.376;2023-06-22T13:36:30;40.00;36.50;23.50
72307;PMS5003;60257;42.638;23.376;2023-06-22T13:38:57;34.50;33.75;22.75
72307;PMS5003;60257;42.638;23.376;2023-06-22T13:41:23;25.00;25.00;19.00
72307;PMS5003;60257;42.638;23.376;2023-06-22T13:43:48;39.50;35.50;24.00